Sea Thames — V2BV1 — position and weather

sailwx.info

Track history (hours):
 
Tides and Currents Weather Stations Pressure Air Temp Water Temp Dewpoint Dewpoint Depression Visibility Wind Speed Wind Dir Waves Ship Positions

Sea Thames

Last reported at 2015-Jul-31 20:12 UTC. Time now 2015-Aug-04 21:58 UTC.
Position N 52°10' W 005°49'.

Length 87 m; draft 3.7 m.

Type: Ship. MMSI: 304933000.

Date/timePositionNaut miles runAvg speedWind from/ knotsBaromVisibWave heightAir tempDewpointWater temp
2015-Jul-31 20:12N 52°10' W 005°49'9 5.2
2015-Jul-31 18:22N 52°20' W 005°47'5 6.4
2015-Jul-31 17:33N 52°25' W 005°45'103 8.6
2015-Jul-31 05:33N 54°07' W 005°19'9 8.9
2015-Jul-31 04:33N 54°16' W 005°19'9 8.6
2015-Jul-31 03:33N 54°24' W 005°19'8 7.8
2015-Jul-31 02:33N 54°32' W 005°19'7 7.1
2015-Jul-31 01:33N 54°39' W 005°21'7 6.5
2015-Jul-31 00:33N 54°45' W 005°24'7 7.4
2015-Jul-30 23:33N 54°52' W 005°31'21 9.0
2015-Jul-30 21:10N 55°09' W 005°53'711.9
2015-Jul-30 20:33N 55°15' W 006°00'1110.8
2015-Jul-30 19:33N 55°22' W 006°15'1010.1
2015-Jul-30 18:33N 55°17' W 006°31'10 9.6
2015-Jul-30 17:33N 55°11' W 006°44'1 0.0
2015-Jul-28 19:32N 55°12' W 006°44'8 8.1
2015-Jul-28 18:33N 55°17' W 006°34'8 8.1
2015-Jul-28 17:33N 55°22' W 006°22'8 7.9
2015-Jul-28 16:33N 55°25' W 006°10'8 8.3
2015-Jul-28 15:33N 55°20' W 005°58'10 9.8
2015-Jul-28 14:33N 55°13' W 005°48'2110.3
2015-Jul-28 12:31N 54°56' W 005°26'1010.6
2015-Jul-28 11:33N 54°47' W 005°17'1010.4
2015-Jul-28 10:33N 54°37' W 005°18'10 9.7
2015-Jul-28 09:32N 54°27' W 005°18'9 9.0
2015-Jul-28 08:33N 54°18' W 005°19'116 8.6
2015-Jul-27 19:03N 52°24' W 005°51'510.1
2015-Jul-27 18:33N 52°19' W 005°54'1010.3
2015-Jul-27 17:33N 52°09' W 005°59'10 9.5
2015-Jul-27 16:31N 52°03' W 006°12'1010.3
2015-Jul-27 15:34N 52°03' W 006°28'10 9.9
2015-Jul-27 14:33N 52°04' W 006°44'9 9.3
2015-Jul-27 13:33N 52°08' W 006°57'7 7.0
2015-Jul-27 12:33N 52°15' W 006°59'2 2.3
2015-Jul-27 11:31N 52°16' W 007°02'0 0.0
2015-Jul-27 10:32N 52°16' W 007°02'0 0.0
2015-Jul-27 09:33N 52°16' W 007°02'0 0.0
2015-Jul-27 08:33N 52°16' W 007°02'0 0.0
2015-Jul-27 07:30N 52°16' W 007°02'0 0.0
2015-Jul-27 06:33N 52°16' W 007°02'0 0.0
2015-Jul-27 05:28N 52°16' W 007°02'0 0.0
2015-Jul-27 04:32N 52°16' W 007°02'0 0.0
2015-Jul-27 03:30N 52°16' W 007°02'0 0.0
2015-Jul-27 02:27N 52°16' W 007°02'0 0.0
2015-Jul-27 01:31N 52°16' W 007°02'0 0.0
2015-Jul-27 00:31N 52°16' W 007°02'0 0.0
2015-Jul-26 23:33N 52°16' W 007°02'0 0.0
2015-Jul-26 22:32N 52°16' W 007°02'0 0.0
2015-Jul-26 21:06N 52°16' W 007°02'0 0.0
2015-Jul-26 20:30N 52°16' W 007°02'0 0.0
2015-Jul-26 19:30N 52°16' W 007°02'0 0.0
2015-Jul-26 18:30N 52°16' W 007°02'0 0.0
2015-Jul-26 17:33N 52°16' W 007°02'4 3.9
2015-Jul-26 16:33N 52°14' W 006°57'7 6.7
2015-Jul-26 15:34N 52°07' W 006°57'8 8.2
2015-Jul-26 14:33N 51°59' W 006°53'176 6.8
2015-Jul-25 12:33N 50°08' W 003°16'8 8.0
2015-Jul-25 11:33N 50°10' W 003°04'130 8.5
2015-Jul-24 20:08N 50°35' E 000°17'6 9.9
2015-Jul-24 19:32N 50°36' E 000°26'9 9.5
2015-Jul-24 18:33N 50°41' E 000°39'9 9.2
2015-Jul-24 17:33N 50°46' E 000°51'19 8.5
2015-Jul-24 15:18N 50°58' E 001°15'7 9.1
2015-Jul-24 14:32N 51°02' E 001°23'1010.7
2015-Jul-24 13:33N 51°09' E 001°36'1110.9
2015-Jul-24 12:33N 51°17' E 001°47'1110.8
2015-Jul-24 11:33N 51°27' E 001°54'10 9.7
2015-Jul-24 10:33N 51°34' E 002°05'10140.9
2015-Jul-24 08:05N 51°50' E 004°46'0 0.0
2015-Jul-24 07:30N 51°50' E 004°46'0 0.0
2015-Jul-24 06:26N 51°50' E 004°46'7281.1
2015-Jul-24 05:33N 52°02' E 002°51'9 8.2
2015-Jul-24 04:31N 52°03' E 003°05'27 9.0
2015-Jul-24 01:33N 52°04' E 003°49'9 8.7
2015-Jul-24 00:33N 52°00' E 004°01'9 8.8
2015-Jul-23 23:34N 51°55' E 004°13'2 1.7
2015-Jul-23 22:32N 51°54' E 004°14'0 0.0
2015-Jul-23 21:29N 51°54' E 004°14'0 0.0
2015-Jul-23 20:32N 51°54' E 004°14'0 0.0
2015-Jul-23 19:29N 51°54' E 004°14'0 0.0
2015-Jul-23 18:33N 51°54' E 004°14'0 0.0
2015-Jul-23 17:28N 51°54' E 004°14'0 0.0
2015-Jul-23 16:33N 51°54' E 004°14'0 0.0
2015-Jul-23 15:29N 51°54' E 004°14'0 0.0
2015-Jul-23 14:27N 51°54' E 004°14'0 0.0
2015-Jul-23 13:29N 51°54' E 004°14'0 0.3
2015-Jul-23 12:34N 51°54' E 004°14'6 6.2
2015-Jul-23 11:34N 51°58' E 004°07'8 7.9
2015-Jul-23 10:33N 52°01' E 003°55'31 0.9
2015-Jul-21 22:33N 52°32' E 003°53'8 8.1
2015-Jul-21 21:33N 52°31' E 004°07'8 8.3
2015-Jul-21 20:33N 52°30' E 004°20'  
Track history (hours):
 
Tides and Currents Weather Stations Pressure Air Temp Water Temp Dewpoint Dewpoint Depression Visibility Wind Speed Wind Dir Waves Ship Positions

Sea Thames

Last reported at 2015-Jul-31 20:12 UTC. Time now 2015-Aug-04 21:58 UTC.
Position N 52°10' W 005°49'.

Length 87 m; draft 3.7 m.

Type: Ship. MMSI: 304933000.

Date/timePositionNaut miles runAvg speedWind from/ knotsBaromVisibWave heightAir tempDewpointWater temp
2015-Jul-31 20:12N 52°10' W 005°49'9 5.2
2015-Jul-31 18:22N 52°20' W 005°47'5 6.4
2015-Jul-31 17:33N 52°25' W 005°45'103 8.6
2015-Jul-31 05:33N 54°07' W 005°19'9 8.9
2015-Jul-31 04:33N 54°16' W 005°19'9 8.6
2015-Jul-31 03:33N 54°24' W 005°19'8 7.8
2015-Jul-31 02:33N 54°32' W 005°19'7 7.1
2015-Jul-31 01:33N 54°39' W 005°21'7 6.5
2015-Jul-31 00:33N 54°45' W 005°24'7 7.4
2015-Jul-30 23:33N 54°52' W 005°31'21 9.0
2015-Jul-30 21:10N 55°09' W 005°53'711.9
2015-Jul-30 20:33N 55°15' W 006°00'1110.8
2015-Jul-30 19:33N 55°22' W 006°15'1010.1
2015-Jul-30 18:33N 55°17' W 006°31'10 9.6
2015-Jul-30 17:33N 55°11' W 006°44'1 0.0
2015-Jul-28 19:32N 55°12' W 006°44'8 8.1
2015-Jul-28 18:33N 55°17' W 006°34'8 8.1
2015-Jul-28 17:33N 55°22' W 006°22'8 7.9
2015-Jul-28 16:33N 55°25' W 006°10'8 8.3
2015-Jul-28 15:33N 55°20' W 005°58'10 9.8
2015-Jul-28 14:33N 55°13' W 005°48'2110.3
2015-Jul-28 12:31N 54°56' W 005°26'1010.6
2015-Jul-28 11:33N 54°47' W 005°17'1010.4
2015-Jul-28 10:33N 54°37' W 005°18'10 9.7
2015-Jul-28 09:32N 54°27' W 005°18'9 9.0
2015-Jul-28 08:33N 54°18' W 005°19'116 8.6
2015-Jul-27 19:03N 52°24' W 005°51'510.1
2015-Jul-27 18:33N 52°19' W 005°54'1010.3
2015-Jul-27 17:33N 52°09' W 005°59'10 9.5
2015-Jul-27 16:31N 52°03' W 006°12'1010.3
2015-Jul-27 15:34N 52°03' W 006°28'10 9.9
2015-Jul-27 14:33N 52°04' W 006°44'9 9.3
2015-Jul-27 13:33N 52°08' W 006°57'7 7.0
2015-Jul-27 12:33N 52°15' W 006°59'2 2.3
2015-Jul-27 11:31N 52°16' W 007°02'0 0.0
2015-Jul-27 10:32N 52°16' W 007°02'0 0.0
2015-Jul-27 09:33N 52°16' W 007°02'0 0.0
2015-Jul-27 08:33N 52°16' W 007°02'0 0.0
2015-Jul-27 07:30N 52°16' W 007°02'0 0.0
2015-Jul-27 06:33N 52°16' W 007°02'0 0.0
2015-Jul-27 05:28N 52°16' W 007°02'0 0.0
2015-Jul-27 04:32N 52°16' W 007°02'0 0.0
2015-Jul-27 03:30N 52°16' W 007°02'0 0.0
2015-Jul-27 02:27N 52°16' W 007°02'0 0.0
2015-Jul-27 01:31N 52°16' W 007°02'0 0.0
2015-Jul-27 00:31N 52°16' W 007°02'0 0.0
2015-Jul-26 23:33N 52°16' W 007°02'0 0.0
2015-Jul-26 22:32N 52°16' W 007°02'0 0.0
2015-Jul-26 21:06N 52°16' W 007°02'0 0.0
2015-Jul-26 20:30N 52°16' W 007°02'0 0.0
2015-Jul-26 19:30N 52°16' W 007°02'0 0.0
2015-Jul-26 18:30N 52°16' W 007°02'0 0.0
2015-Jul-26 17:33N 52°16' W 007°02'4 3.9
2015-Jul-26 16:33N 52°14' W 006°57'7 6.7
2015-Jul-26 15:34N 52°07' W 006°57'8 8.2
2015-Jul-26 14:33N 51°59' W 006°53'176 6.8
2015-Jul-25 12:33N 50°08' W 003°16'8 8.0
2015-Jul-25 11:33N 50°10' W 003°04'130 8.5
2015-Jul-24 20:08N 50°35' E 000°17'6 9.9
2015-Jul-24 19:32N 50°36' E 000°26'9 9.5
2015-Jul-24 18:33N 50°41' E 000°39'9 9.2
2015-Jul-24 17:33N 50°46' E 000°51'19 8.5
2015-Jul-24 15:18N 50°58' E 001°15'7 9.1
2015-Jul-24 14:32N 51°02' E 001°23'1010.7
2015-Jul-24 13:33N 51°09' E 001°36'1110.9
2015-Jul-24 12:33N 51°17' E 001°47'1110.8
2015-Jul-24 11:33N 51°27' E 001°54'10 9.7
2015-Jul-24 10:33N 51°34' E 002°05'10140.9
2015-Jul-24 08:05N 51°50' E 004°46'0 0.0
2015-Jul-24 07:30N 51°50' E 004°46'0 0.0
2015-Jul-24 06:26N 51°50' E 004°46'7281.1
2015-Jul-24 05:33N 52°02' E 002°51'9 8.2
2015-Jul-24 04:31N 52°03' E 003°05'27 9.0
2015-Jul-24 01:33N 52°04' E 003°49'9 8.7
2015-Jul-24 00:33N 52°00' E 004°01'9 8.8
2015-Jul-23 23:34N 51°55' E 004°13'2 1.7
2015-Jul-23 22:32N 51°54' E 004°14'0 0.0
2015-Jul-23 21:29N 51°54' E 004°14'0 0.0
2015-Jul-23 20:32N 51°54' E 004°14'0 0.0
2015-Jul-23 19:29N 51°54' E 004°14'0 0.0
2015-Jul-23 18:33N 51°54' E 004°14'0 0.0
2015-Jul-23 17:28N 51°54' E 004°14'0 0.0
2015-Jul-23 16:33N 51°54' E 004°14'0 0.0
2015-Jul-23 15:29N 51°54' E 004°14'0 0.0
2015-Jul-23 14:27N 51°54' E 004°14'0 0.0
2015-Jul-23 13:29N 51°54' E 004°14'0 0.3
2015-Jul-23 12:34N 51°54' E 004°14'6 6.2
2015-Jul-23 11:34N 51°58' E 004°07'8 7.9
2015-Jul-23 10:33N 52°01' E 003°55'31 0.9
2015-Jul-21 22:33N 52°32' E 003°53'8 8.1
2015-Jul-21 21:33N 52°31' E 004°07'8 8.3
2015-Jul-21 20:33N 52°30' E 004°20'  

Dump ship's entire track history